sensor_id;sensor_type;location;lat;lon;timestamp;pressure;altitude;pressure_sealevel;temperature;humidity
60246;BME280;46107;53.356;-1.524;2023-04-19T00:00:50;100312.77;;;5.37;65.07
60246;BME280;46107;53.356;-1.524;2023-04-19T00:03:17;100310.97;;;4.77;65.72
60246;BME280;46107;53.356;-1.524;2023-04-19T00:05:45;100311.52;;;4.87;66.05
60246;BME280;46107;53.356;-1.524;2023-04-19T00:08:12;100312.96;;;4.80;66.33
60246;BME280;46107;53.356;-1.524;2023-04-19T00:10:40;100311.14;;;5.11;65.39
60246;BME280;46107;53.356;-1.524;2023-04-19T00:13:08;100315.73;;;4.12;67.26
60246;BME280;46107;53.356;-1.524;2023-04-19T00:15:37;100312.61;;;5.39;63.92
60246;BME280;46107;53.356;-1.524;2023-04-19T00:18:05;100311.21;;;5.49;63.90
60246;BME280;46107;53.356;-1.524;2023-04-19T00:20:32;100309.32;;;4.45;66.52
60246;BME280;46107;53.356;-1.524;2023-04-19T00:22:59;100302.47;;;5.16;65.65
60246;BME280;46107;53.356;-1.524;2023-04-19T00:25:27;100298.53;;;5.55;63.56
60246;BME280;46107;53.356;-1.524;2023-04-19T00:27:55;100294.37;;;5.34;64.74
60246;BME280;46107;53.356;-1.524;2023-04-19T00:30:22;100296.62;;;4.67;65.89
60246;BME280;46107;53.356;-1.524;2023-04-19T00:32:50;100294.40;;;5.54;63.92
60246;BME280;46107;53.356;-1.524;2023-04-19T00:35:18;100296.07;;;4.01;68.85
60246;BME280;46107;53.356;-1.524;2023-04-19T00:37:46;100287.43;;;4.58;68.32
60246;BME280;46107;53.356;-1.524;2023-04-19T00:40:14;100285.73;;;4.55;66.44
60246;BME280;46107;53.356;-1.524;2023-04-19T00:42:42;100284.78;;;5.06;65.22
60246;BME280;46107;53.356;-1.524;2023-04-19T00:45:10;100280.74;;;4.89;66.28
60246;BME280;46107;53.356;-1.524;2023-04-19T00:47:38;100280.83;;;4.34;68.18
60246;BME280;46107;53.356;-1.524;2023-04-19T00:50:06;100278.45;;;4.92;66.40
60246;BME280;46107;53.356;-1.524;2023-04-19T00:52:34;100280.44;;;5.30;65.63
60246;BME280;46107;53.356;-1.524;2023-04-19T00:55:02;100284.33;;;4.30;70.15
60246;BME280;46107;53.356;-1.524;2023-04-19T00:57:31;100278.00;;;5.43;65.96
60246;BME280;46107;53.356;-1.524;2023-04-19T00:59:58;100275.30;;;5.11;66.32
60246;BME280;46107;53.356;-1.524;2023-04-19T01:02:26;100275.35;;;5.03;66.63
60246;BME280;46107;53.356;-1.524;2023-04-19T01:04:53;100275.75;;;5.77;64.56
60246;BME280;46107;53.356;-1.524;2023-04-19T01:07:20;100276.26;;;3.95;68.90
60246;BME280;46107;53.356;-1.524;2023-04-19T01:09:49;100271.92;;;4.73;68.07
60246;BME280;46107;53.356;-1.524;2023-04-19T01:12:16;100275.10;;;5.37;65.53
60246;BME280;46107;53.356;-1.524;2023-04-19T01:14:44;100274.40;;;5.28;66.08
60246;BME280;46107;53.356;-1.524;2023-04-19T01:17:11;100266.34;;;5.66;63.96
60246;BME280;46107;53.356;-1.524;2023-04-19T01:19:39;100260.42;;;5.04;65.60
60246;BME280;46107;53.356;-1.524;2023-04-19T01:22:06;100262.62;;;5.50;64.62
60246;BME280;46107;53.356;-1.524;2023-04-19T01:24:34;100257.31;;;5.82;63.54
60246;BME280;46107;53.356;-1.524;2023-04-19T01:27:01;100259.60;;;5.14;66.10
60246;BME280;46107;53.356;-1.524;2023-04-19T01:29:29;100265.93;;;5.63;65.25
60246;BME280;46107;53.356;-1.524;2023-04-19T01:31:56;100258.80;;;5.96;64.30
60246;BME280;46107;53.356;-1.524;2023-04-19T01:34:24;100255.66;;;5.95;64.08
60246;BME280;46107;53.356;-1.524;2023-04-19T01:36:52;100256.00;;;5.37;64.93
60246;BME280;46107;53.356;-1.524;2023-04-19T01:39:19;100254.28;;;5.42;63.92
60246;BME280;46107;53.356;-1.524;2023-04-19T01:41:47;100252.81;;;5.65;64.42
60246;BME280;46107;53.356;-1.524;2023-04-19T01:44:14;100249.52;;;5.36;64.79
60246;BME280;46107;53.356;-1.524;2023-04-19T01:46:42;100246.38;;;6.52;62.02
60246;BME280;46107;53.356;-1.524;2023-04-19T01:49:10;100241.37;;;6.06;62.68
60246;BME280;46107;53.356;-1.524;2023-04-19T01:51:38;100241.62;;;5.71;63.33
60246;BME280;46107;53.356;-1.524;2023-04-19T01:54:06;100240.00;;;5.42;64.73
60246;BME280;46107;53.356;-1.524;2023-04-19T01:56:33;100239.54;;;4.98;65.36
60246;BME280;46107;53.356;-1.524;2023-04-19T01:59:01;100231.86;;;4.31;67.74
60246;BME280;46107;53.356;-1.524;2023-04-19T02:01:29;100230.73;;;4.76;67.98
60246;BME280;46107;53.356;-1.524;2023-04-19T02:03:57;100226.20;;;5.74;63.06
60246;BME280;46107;53.356;-1.524;2023-04-19T02:06:25;100225.61;;;4.85;66.52
60246;BME280;46107;53.356;-1.524;2023-04-19T02:08:53;100228.31;;;5.66;64.73
60246;BME280;46107;53.356;-1.524;2023-04-19T02:11:21;100226.18;;;5.84;63.94
60246;BME280;46107;53.356;-1.524;2023-04-19T02:13:49;100224.42;;;5.98;63.13
60246;BME280;46107;53.356;-1.524;2023-04-19T02:16:17;100224.59;;;5.57;63.70
60246;BME280;46107;53.356;-1.524;2023-04-19T02:18:45;100221.64;;;6.05;62.62
60246;BME280;46107;53.356;-1.524;2023-04-19T02:21:13;100224.93;;;5.87;62.82
60246;BME280;46107;53.356;-1.524;2023-04-19T02:23:40;100223.89;;;5.32;63.29
60246;BME280;46107;53.356;-1.524;2023-04-19T02:26:07;100224.61;;;5.16;64.27
60246;BME280;46107;53.356;-1.524;2023-04-19T02:28:35;100222.54;;;5.15;64.95
60246;BME280;46107;53.356;-1.524;2023-04-19T02:31:04;100215.24;;;6.35;62.49
60246;BME280;46107;53.356;-1.524;2023-04-19T02:33:33;100216.00;;;6.64;61.86
60246;BME280;46107;53.356;-1.524;2023-04-19T02:36:01;100216.93;;;6.61;61.13
60246;BME280;46107;53.356;-1.524;2023-04-19T02:38:28;100214.34;;;6.84;60.88
60246;BME280;46107;53.356;-1.524;2023-04-19T02:40:56;100213.44;;;5.58;63.33
60246;BME280;46107;53.356;-1.524;2023-04-19T02:43:23;100213.19;;;5.92;63.68
60246;BME280;46107;53.356;-1.524;2023-04-19T02:45:51;100209.59;;;5.64;63.56
60246;BME280;46107;53.356;-1.524;2023-04-19T02:48:23;100202.47;;;6.69;60.89
60246;BME280;46107;53.356;-1.524;2023-04-19T02:50:51;100203.59;;;6.18;61.66
60246;BME280;46107;53.356;-1.524;2023-04-19T02:53:18;100203.88;;;6.53;62.06
60246;BME280;46107;53.356;-1.524;2023-04-19T02:55:46;100201.93;;;5.96;63.43
60246;BME280;46107;53.356;-1.524;2023-04-19T02:58:14;100199.23;;;6.27;62.04
60246;BME280;46107;53.356;-1.524;2023-04-19T03:00:42;100200.43;;;5.14;65.66
60246;BME280;46107;53.356;-1.524;2023-04-19T03:03:10;100202.07;;;5.85;64.55
60246;BME280;46107;53.356;-1.524;2023-04-19T03:05:37;100201.41;;;5.66;64.17
60246;BME280;46107;53.356;-1.524;2023-04-19T03:08:05;100203.01;;;6.25;63.17
60246;BME280;46107;53.356;-1.524;2023-04-19T03:10:32;100199.62;;;6.43;62.64
60246;BME280;46107;53.356;-1.524;2023-04-19T03:13:00;100198.44;;;6.74;62.01
60246;BME280;46107;53.356;-1.524;2023-04-19T03:15:27;100201.65;;;5.67;64.54
60246;BME280;46107;53.356;-1.524;2023-04-19T03:17:54;100201.86;;;5.69;65.65
60246;BME280;46107;53.356;-1.524;2023-04-19T03:20:22;100197.41;;;6.68;62.42
60246;BME280;46107;53.356;-1.524;2023-04-19T03:22:50;100196.64;;;5.69;65.42
60246;BME280;46107;53.356;-1.524;2023-04-19T03:25:18;100196.30;;;6.96;62.90
60246;BME280;46107;53.356;-1.524;2023-04-19T03:27:45;100196.42;;;5.95;64.33
60246;BME280;46107;53.356;-1.524;2023-04-19T03:30:13;100197.46;;;7.59;60.50
60246;BME280;46107;53.356;-1.524;2023-04-19T03:32:40;100192.25;;;7.43;61.37
60246;BME280;46107;53.356;-1.524;2023-04-19T03:35:08;100198.50;;;6.59;62.71
60246;BME280;46107;53.356;-1.524;2023-04-19T03:37:35;100194.13;;;6.92;61.30
60246;BME280;46107;53.356;-1.524;2023-04-19T03:40:03;100196.26;;;6.75;63.31
60246;BME280;46107;53.356;-1.524;2023-04-19T03:42:31;100191.48;;;6.13;64.09
60246;BME280;46107;53.356;-1.524;2023-04-19T03:44:59;100192.14;;;7.42;61.65
60246;BME280;46107;53.356;-1.524;2023-04-19T03:47:26;100195.74;;;6.52;62.68
60246;BME280;46107;53.356;-1.524;2023-04-19T03:49:54;100196.93;;;7.00;62.07
60246;BME280;46107;53.356;-1.524;2023-04-19T03:52:21;100192.57;;;6.71;62.14
60246;BME280;46107;53.356;-1.524;2023-04-19T03:54:49;100191.73;;;5.85;66.09
60246;BME280;46107;53.356;-1.524;2023-04-19T03:57:17;100190.99;;;6.25;65.45
60246;BME280;46107;53.356;-1.524;2023-04-19T03:59:45;100193.43;;;6.07;65.86
60246;BME280;46107;53.356;-1.524;2023-04-19T04:02:12;100191.46;;;5.91;66.23
60246;BME280;46107;53.356;-1.524;2023-04-19T04:04:40;100187.78;;;6.63;65.21
60246;BME280;46107;53.356;-1.524;2023-04-19T04:07:07;100188.82;;;5.73;67.45
60246;BME280;46107;53.356;-1.524;2023-04-19T04:09:34;100185.13;;;6.37;66.80
60246;BME280;46107;53.356;-1.524;2023-04-19T04:12:02;100188.04;;;6.49;65.41
60246;BME280;46107;53.356;-1.524;2023-04-19T04:14:29;100186.37;;;6.05;67.23
60246;BME280;46107;53.356;-1.524;2023-04-19T04:16:56;100183.67;;;6.21;67.40
60246;BME280;46107;53.356;-1.524;2023-04-19T04:19:24;100183.05;;;6.70;65.63
60246;BME280;46107;53.356;-1.524;2023-04-19T04:21:52;100178.13;;;6.51;66.68
60246;BME280;46107;53.356;-1.524;2023-04-19T04:24:20;100185.88;;;4.97;70.96
60246;BME280;46107;53.356;-1.524;2023-04-19T04:26:47;100182.35;;;6.18;68.91
60246;BME280;46107;53.356;-1.524;2023-04-19T04:29:15;100183.36;;;6.08;69.52
60246;BME280;46107;53.356;-1.524;2023-04-19T04:31:42;100183.86;;;6.54;67.35
60246;BME280;46107;53.356;-1.524;2023-04-19T04:34:09;100177.17;;;6.28;67.72
60246;BME280;46107;53.356;-1.524;2023-04-19T04:36:36;100187.06;;;6.96;64.40
60246;BME280;46107;53.356;-1.524;2023-04-19T04:39:04;100186.93;;;5.90;69.62
60246;BME280;46107;53.356;-1.524;2023-04-19T04:41:32;100191.44;;;5.54;72.53
60246;BME280;46107;53.356;-1.524;2023-04-19T04:43:59;100189.00;;;6.29;69.57
60246;BME280;46107;53.356;-1.524;2023-04-19T04:46:27;100188.38;;;6.65;67.91
60246;BME280;46107;53.356;-1.524;2023-04-19T04:48:55;100192.09;;;5.30;73.59
60246;BME280;46107;53.356;-1.524;2023-04-19T04:51:23;100191.62;;;5.73;72.79
60246;BME280;46107;53.356;-1.524;2023-04-19T04:53:51;100185.90;;;6.27;70.49
60246;BME280;46107;53.356;-1.524;2023-04-19T04:56:18;100184.39;;;6.21;70.21
60246;BME280;46107;53.356;-1.524;2023-04-19T04:58:46;100183.73;;;5.94;70.85
60246;BME280;46107;53.356;-1.524;2023-04-19T05:01:13;100185.59;;;5.81;71.26
60246;BME280;46107;53.356;-1.524;2023-04-19T05:03:41;100185.46;;;6.39;68.91
60246;BME280;46107;53.356;-1.524;2023-04-19T05:06:08;100185.78;;;6.37;70.46
60246;BME280;46107;53.356;-1.524;2023-04-19T05:08:35;100191.82;;;5.85;73.00
60246;BME280;46107;53.356;-1.524;2023-04-19T05:11:03;100193.39;;;6.51;71.82
60246;BME280;46107;53.356;-1.524;2023-04-19T05:13:30;100194.51;;;5.98;70.20
60246;BME280;46107;53.356;-1.524;2023-04-19T05:15:58;100196.55;;;5.78;71.15
60246;BME280;46107;53.356;-1.524;2023-04-19T05:18:25;100194.78;;;6.42;69.73
60246;BME280;46107;53.356;-1.524;2023-04-19T05:20:53;100198.62;;;5.47;72.18
60246;BME280;46107;53.356;-1.524;2023-04-19T05:23:21;100194.29;;;6.19;70.29
60246;BME280;46107;53.356;-1.524;2023-04-19T05:25:50;100196.95;;;5.94;71.47
60246;BME280;46107;53.356;-1.524;2023-04-19T05:28:17;100197.71;;;6.17;70.08
60246;BME280;46107;53.356;-1.524;2023-04-19T05:30:45;100204.29;;;5.30;72.93
60246;BME280;46107;53.356;-1.524;2023-04-19T05:33:13;100198.04;;;6.06;71.18
60246;BME280;46107;53.356;-1.524;2023-04-19T05:35:42;100199.29;;;6.08;71.69
60246;BME280;46107;53.356;-1.524;2023-04-19T05:38:09;100198.99;;;6.34;69.28
60246;BME280;46107;53.356;-1.524;2023-04-19T05:40:36;100207.27;;;5.84;73.91
60246;BME280;46107;53.356;-1.524;2023-04-19T05:43:04;100202.22;;;6.05;72.44
60246;BME280;46107;53.356;-1.524;2023-04-19T05:45:31;100204.84;;;6.11;72.33
60246;BME280;46107;53.356;-1.524;2023-04-19T05:47:58;100207.09;;;6.50;69.56
60246;BME280;46107;53.356;-1.524;2023-04-19T05:50:26;100206.61;;;6.14;71.27
60246;BME280;46107;53.356;-1.524;2023-04-19T05:52:54;100207.78;;;6.56;69.28
60246;BME280;46107;53.356;-1.524;2023-04-19T05:55:21;100214.94;;;5.32;76.17
60246;BME280;46107;53.356;-1.524;2023-04-19T05:57:48;100214.64;;;5.24;75.32
60246;BME280;46107;53.356;-1.524;2023-04-19T06:00:16;100218.26;;;5.90;73.71
60246;BME280;46107;53.356;-1.524;2023-04-19T06:02:44;100215.58;;;6.21;72.48
60246;BME280;46107;53.356;-1.524;2023-04-19T06:05:12;100220.66;;;5.66;75.09
60246;BME280;46107;53.356;-1.524;2023-04-19T06:07:38;100214.05;;;5.75;72.80
60246;BME280;46107;53.356;-1.524;2023-04-19T06:10:07;100215.56;;;6.54;71.06
60246;BME280;46107;53.356;-1.524;2023-04-19T06:12:35;100213.64;;;6.28;72.14
60246;BME280;46107;53.356;-1.524;2023-04-19T06:15:04;100216.49;;;6.37;71.64
60246;BME280;46107;53.356;-1.524;2023-04-19T06:17:31;100218.55;;;6.81;70.13
60246;BME280;46107;53.356;-1.524;2023-04-19T06:19:59;100218.24;;;6.88;69.52
60246;BME280;46107;53.356;-1.524;2023-04-19T06:22:26;100222.61;;;6.74;69.44
60246;BME280;46107;53.356;-1.524;2023-04-19T06:24:53;100222.82;;;6.43;70.68
60246;BME280;46107;53.356;-1.524;2023-04-19T06:27:21;100224.60;;;6.54;69.54
60246;BME280;46107;53.356;-1.524;2023-04-19T06:29:49;100223.09;;;5.97;70.63
60246;BME280;46107;53.356;-1.524;2023-04-19T06:32:17;100223.29;;;6.96;68.91
60246;BME280;46107;53.356;-1.524;2023-04-19T06:34:44;100225.39;;;6.56;69.16
60246;BME280;46107;53.356;-1.524;2023-04-19T06:37:11;100227.13;;;7.03;69.28
60246;BME280;46107;53.356;-1.524;2023-04-19T06:39:38;100226.14;;;6.45;69.81
60246;BME280;46107;53.356;-1.524;2023-04-19T06:42:06;100226.94;;;6.94;68.70
60246;BME280;46107;53.356;-1.524;2023-04-19T06:44:33;100228.09;;;7.14;68.09
60246;BME280;46107;53.356;-1.524;2023-04-19T06:47:01;100226.44;;;6.34;70.00
60246;BME280;46107;53.356;-1.524;2023-04-19T06:49:28;100224.85;;;7.56;68.32
60246;BME280;46107;53.356;-1.524;2023-04-19T06:51:58;100220.44;;;5.60;71.43
60246;BME280;46107;53.356;-1.524;2023-04-19T06:54:27;100223.76;;;5.64;73.40
60246;BME280;46107;53.356;-1.524;2023-04-19T06:56:55;100220.82;;;6.04;72.49
60246;BME280;46107;53.356;-1.524;2023-04-19T06:59:23;100222.79;;;5.90;73.44
60246;BME280;46107;53.356;-1.524;2023-04-19T07:01:51;100221.01;;;6.39;72.83
60246;BME280;46107;53.356;-1.524;2023-04-19T07:04:19;100221.59;;;6.24;72.91
60246;BME280;46107;53.356;-1.524;2023-04-19T07:06:49;100223.92;;;6.25;72.37
60246;BME280;46107;53.356;-1.524;2023-04-19T07:09:16;100225.05;;;5.36;73.85
60246;BME280;46107;53.356;-1.524;2023-04-19T07:11:44;100223.32;;;7.21;69.78
60246;BME280;46107;53.356;-1.524;2023-04-19T07:14:11;100220.75;;;6.25;72.69
60246;BME280;46107;53.356;-1.524;2023-04-19T07:16:39;100222.35;;;6.39;72.16
60246;BME280;46107;53.356;-1.524;2023-04-19T07:19:07;100223.07;;;6.91;69.40
60246;BME280;46107;53.356;-1.524;2023-04-19T07:21:34;100226.13;;;6.61;70.92
60246;BME280;46107;53.356;-1.524;2023-04-19T07:24:02;100227.48;;;6.68;71.47
60246;BME280;46107;53.356;-1.524;2023-04-19T07:26:30;100225.93;;;5.96;73.07
60246;BME280;46107;53.356;-1.524;2023-04-19T07:28:58;100229.92;;;6.72;72.86
60246;BME280;46107;53.356;-1.524;2023-04-19T07:31:26;100235.00;;;6.96;68.96
60246;BME280;46107;53.356;-1.524;2023-04-19T07:33:54;100230.24;;;7.49;70.00
60246;BME280;46107;53.356;-1.524;2023-04-19T07:36:23;100230.66;;;6.59;70.30
60246;BME280;46107;53.356;-1.524;2023-04-19T07:38:51;100225.73;;;6.48;72.94
60246;BME280;46107;53.356;-1.524;2023-04-19T07:41:18;100226.21;;;5.87;73.97
60246;BME280;46107;53.356;-1.524;2023-04-19T07:43:46;100227.96;;;6.70;71.65
60246;BME280;46107;53.356;-1.524;2023-04-19T07:46:14;100232.03;;;7.07;70.68
60246;BME280;46107;53.356;-1.524;2023-04-19T07:48:41;100231.49;;;7.18;70.87
60246;BME280;46107;53.356;-1.524;2023-04-19T07:51:10;100230.28;;;6.01;73.66
60246;BME280;46107;53.356;-1.524;2023-04-19T07:53:38;100233.21;;;5.74;75.87
60246;BME280;46107;53.356;-1.524;2023-04-19T07:56:07;100234.14;;;5.78;77.44
60246;BME280;46107;53.356;-1.524;2023-04-19T07:58:35;100232.20;;;6.71;74.31
60246;BME280;46107;53.356;-1.524;2023-04-19T08:01:03;100235.96;;;6.61;74.18
60246;BME280;46107;53.356;-1.524;2023-04-19T08:03:33;100243.21;;;5.61;74.98
60246;BME280;46107;53.356;-1.524;2023-04-19T08:06:01;100242.33;;;6.64;73.09
60246;BME280;46107;53.356;-1.524;2023-04-19T08:08:29;100244.29;;;6.26;73.67
60246;BME280;46107;53.356;-1.524;2023-04-19T08:10:57;100241.32;;;4.84;78.09
60246;BME280;46107;53.356;-1.524;2023-04-19T08:13:24;100239.38;;;5.01;79.37
60246;BME280;46107;53.356;-1.524;2023-04-19T08:15:52;100238.65;;;6.37;75.19
60246;BME280;46107;53.356;-1.524;2023-04-19T08:18:19;100235.03;;;6.92;74.69
60246;BME280;46107;53.356;-1.524;2023-04-19T08:20:47;100234.03;;;7.19;71.66
60246;BME280;46107;53.356;-1.524;2023-04-19T08:23:14;100235.98;;;7.25;70.76
60246;BME280;46107;53.356;-1.524;2023-04-19T08:25:42;100235.16;;;7.15;71.48
60246;BME280;46107;53.356;-1.524;2023-04-19T08:28:10;100236.41;;;7.69;69.60
60246;BME280;46107;53.356;-1.524;2023-04-19T08:30:38;100234.48;;;7.24;70.85
60246;BME280;46107;53.356;-1.524;2023-04-19T08:33:07;100237.82;;;7.38;71.04
60246;BME280;46107;53.356;-1.524;2023-04-19T08:35:34;100243.10;;;8.07;67.54
60246;BME280;46107;53.356;-1.524;2023-04-19T08:38:02;100242.68;;;7.02;70.09
60246;BME280;46107;53.356;-1.524;2023-04-19T08:40:30;100243.47;;;7.08;69.64
60246;BME280;46107;53.356;-1.524;2023-04-19T08:42:58;100245.72;;;6.98;70.97
60246;BME280;46107;53.356;-1.524;2023-04-19T08:45:27;100248.99;;;8.06;69.45
60246;BME280;46107;53.356;-1.524;2023-04-19T08:47:56;100248.46;;;7.04;70.46
60246;BME280;46107;53.356;-1.524;2023-04-19T08:50:25;100252.05;;;6.91;70.03
60246;BME280;46107;53.356;-1.524;2023-04-19T08:52:53;100251.21;;;7.62;69.36
60246;BME280;46107;53.356;-1.524;2023-04-19T08:55:21;100244.05;;;7.67;68.96
60246;BME280;46107;53.356;-1.524;2023-04-19T08:57:50;100247.13;;;8.10;67.66
60246;BME280;46107;53.356;-1.524;2023-04-19T09:00:18;100243.36;;;7.89;65.86
60246;BME280;46107;53.356;-1.524;2023-04-19T09:02:47;100243.44;;;8.68;65.89
60246;BME280;46107;53.356;-1.524;2023-04-19T09:05:16;100240.82;;;8.16;66.99
60246;BME280;46107;53.356;-1.524;2023-04-19T09:07:47;100237.25;;;8.28;66.40
60246;BME280;46107;53.356;-1.524;2023-04-19T09:10:17;100237.30;;;7.45;69.13
60246;BME280;46107;53.356;-1.524;2023-04-19T09:12:59;100238.38;;;6.98;73.25
60246;BME280;46107;53.356;-1.524;2023-04-19T09:15:35;100240.89;;;7.16;74.10
60246;BME280;46107;53.356;-1.524;2023-04-19T09:18:05;100240.08;;;7.49;71.41
60246;BME280;46107;53.356;-1.524;2023-04-19T09:20:37;100240.95;;;7.72;70.30
60246;BME280;46107;53.356;-1.524;2023-04-19T09:23:06;100237.10;;;7.49;70.80
60246;BME280;46107;53.356;-1.524;2023-04-19T09:25:39;100234.13;;;8.16;68.52
60246;BME280;46107;53.356;-1.524;2023-04-19T09:28:10;100230.41;;;8.45;67.56
60246;BME280;46107;53.356;-1.524;2023-04-19T09:30:38;100231.22;;;8.82;66.73
60246;BME280;46107;53.356;-1.524;2023-04-19T09:33:07;100231.68;;;7.95;69.51
60246;BME280;46107;53.356;-1.524;2023-04-19T09:35:43;100232.82;;;8.10;67.50
60246;BME280;46107;53.356;-1.524;2023-04-19T09:38:11;100236.05;;;8.23;67.83
60246;BME280;46107;53.356;-1.524;2023-04-19T09:40:40;100232.83;;;8.20;69.10
60246;BME280;46107;53.356;-1.524;2023-04-19T09:43:08;100236.28;;;8.15;70.93
60246;BME280;46107;53.356;-1.524;2023-04-19T09:45:40;100221.94;;;8.27;69.47
60246;BME280;46107;53.356;-1.524;2023-04-19T09:48:10;100226.69;;;8.45;68.68
60246;BME280;46107;53.356;-1.524;2023-04-19T09:50:51;100228.04;;;8.92;67.71
60246;BME280;46107;53.356;-1.524;2023-04-19T09:53:19;100224.24;;;9.06;65.27
60246;BME280;46107;53.356;-1.524;2023-04-19T09:55:46;100230.55;;;8.97;66.06
60246;BME280;46107;53.356;-1.524;2023-04-19T09:58:14;100228.13;;;8.53;67.37
60246;BME280;46107;53.356;-1.524;2023-04-19T10:00:43;100220.15;;;8.90;66.69
60246;BME280;46107;53.356;-1.524;2023-04-19T10:03:12;100218.75;;;8.46;66.91
60246;BME280;46107;53.356;-1.524;2023-04-19T10:05:42;100218.09;;;10.06;64.01
60246;BME280;46107;53.356;-1.524;2023-04-19T10:08:10;100217.50;;;9.45;65.37
60246;BME280;46107;53.356;-1.524;2023-04-19T10:10:40;100208.30;;;9.26;64.23
60246;BME280;46107;53.356;-1.524;2023-04-19T10:13:11;100207.46;;;9.13;66.51
60246;BME280;46107;53.356;-1.524;2023-04-19T10:15:38;100207.30;;;8.47;67.73
60246;BME280;46107;53.356;-1.524;2023-04-19T10:18:09;100206.90;;;8.84;65.87
60246;BME280;46107;53.356;-1.524;2023-04-19T10:20:45;100207.47;;;9.64;64.84
60246;BME280;46107;53.356;-1.524;2023-04-19T10:23:13;100210.79;;;8.77;66.86
60246;BME280;46107;53.356;-1.524;2023-04-19T10:25:45;100213.24;;;8.36;68.75
60246;BME280;46107;53.356;-1.524;2023-04-19T10:28:14;100213.17;;;7.89;70.31
60246;BME280;46107;53.356;-1.524;2023-04-19T10:30:52;100211.15;;;8.74;66.95
60246;BME280;46107;53.356;-1.524;2023-04-19T10:33:27;100210.74;;;7.97;71.34
60246;BME280;46107;53.356;-1.524;2023-04-19T10:35:56;100205.63;;;8.24;71.45
60246;BME280;46107;53.356;-1.524;2023-04-19T10:38:40;100203.78;;;9.00;69.71
60246;BME280;46107;53.356;-1.524;2023-04-19T10:41:10;100202.92;;;9.36;68.77
60246;BME280;46107;53.356;-1.524;2023-04-19T10:43:38;100200.07;;;9.24;66.89
60246;BME280;46107;53.356;-1.524;2023-04-19T10:46:08;100200.98;;;8.89;68.57
60246;BME280;46107;53.356;-1.524;2023-04-19T10:48:39;100200.34;;;8.67;69.96
60246;BME280;46107;53.356;-1.524;2023-04-19T10:51:15;100198.10;;;9.47;66.31
60246;BME280;46107;53.356;-1.524;2023-04-19T10:53:44;100193.96;;;9.43;66.57
60246;BME280;46107;53.356;-1.524;2023-04-19T10:56:13;100196.48;;;9.96;64.98
60246;BME280;46107;53.356;-1.524;2023-04-19T10:59:16;100191.56;;;10.52;63.26
60246;BME280;46107;53.356;-1.524;2023-04-19T11:01:45;100192.57;;;9.64;63.42
60246;BME280;46107;53.356;-1.524;2023-04-19T11:04:15;100188.61;;;10.39;61.04
60246;BME280;46107;53.356;-1.524;2023-04-19T11:06:59;100188.26;;;9.56;61.59
60246;BME280;46107;53.356;-1.524;2023-04-19T11:09:29;100188.52;;;10.07;61.96
60246;BME280;46107;53.356;-1.524;2023-04-19T11:12:00;100190.13;;;10.59;60.87
60246;BME280;46107;53.356;-1.524;2023-04-19T11:14:31;100187.18;;;10.13;61.05
60246;BME280;46107;53.356;-1.524;2023-04-19T11:17:03;100186.80;;;9.72;61.88
60246;BME280;46107;53.356;-1.524;2023-04-19T11:19:31;100184.62;;;9.58;61.98
60246;BME280;46107;53.356;-1.524;2023-04-19T11:21:58;100187.67;;;9.24;63.02
60246;BME280;46107;53.356;-1.524;2023-04-19T11:24:26;100181.36;;;10.37;61.82
60246;BME280;46107;53.356;-1.524;2023-04-19T11:27:07;100178.73;;;9.26;62.40
60246;BME280;46107;53.356;-1.524;2023-04-19T11:29:35;100172.88;;;10.07;62.61
60246;BME280;46107;53.356;-1.524;2023-04-19T11:32:08;100174.69;;;9.52;60.08
60246;BME280;46107;53.356;-1.524;2023-04-19T11:34:39;100180.99;;;9.69;62.22
60246;BME280;46107;53.356;-1.524;2023-04-19T11:37:08;100179.44;;;9.66;61.48
60246;BME280;46107;53.356;-1.524;2023-04-19T11:39:45;100172.19;;;10.26;62.91
60246;BME280;46107;53.356;-1.524;2023-04-19T11:42:18;100172.20;;;10.16;62.26
60246;BME280;46107;53.356;-1.524;2023-04-19T11:44:51;100166.72;;;9.93;60.80
60246;BME280;46107;53.356;-1.524;2023-04-19T11:47:19;100164.96;;;11.37;56.21
60246;BME280;46107;53.356;-1.524;2023-04-19T11:49:46;100170.28;;;11.03;59.47
60246;BME280;46107;53.356;-1.524;2023-04-19T11:52:20;100165.80;;;11.37;56.29
60246;BME280;46107;53.356;-1.524;2023-04-19T11:54:49;100159.97;;;12.45;54.49
60246;BME280;46107;53.356;-1.524;2023-04-19T11:57:26;100166.19;;;10.84;56.07
60246;BME280;46107;53.356;-1.524;2023-04-19T12:00:03;100165.92;;;10.97;57.38
60246;BME280;46107;53.356;-1.524;2023-04-19T12:02:35;100168.85;;;11.81;55.09
60246;BME280;46107;53.356;-1.524;2023-04-19T12:05:07;100164.84;;;10.73;56.83
60246;BME280;46107;53.356;-1.524;2023-04-19T12:07:35;100161.13;;;10.60;56.69
60246;BME280;46107;53.356;-1.524;2023-04-19T12:10:11;100157.32;;;10.32;58.47
60246;BME280;46107;53.356;-1.524;2023-04-19T12:12:39;100159.83;;;10.88;55.98
60246;BME280;46107;53.356;-1.524;2023-04-19T12:15:07;100156.32;;;10.12;55.80
60246;BME280;46107;53.356;-1.524;2023-04-19T12:17:55;100158.17;;;11.27;53.48
60246;BME280;46107;53.356;-1.524;2023-04-19T12:20:31;100157.11;;;10.60;53.78
60246;BME280;46107;53.356;-1.524;2023-04-19T12:22:59;100154.36;;;10.79;54.52
60246;BME280;46107;53.356;-1.524;2023-04-19T12:25:28;100157.14;;;10.98;55.00
60246;BME280;46107;53.356;-1.524;2023-04-19T12:27:56;100152.95;;;11.54;53.21
60246;BME280;46107;53.356;-1.524;2023-04-19T12:30:29;100159.07;;;11.01;53.41
60246;BME280;46107;53.356;-1.524;2023-04-19T12:32:58;100146.01;;;10.36;54.70
60246;BME280;46107;53.356;-1.524;2023-04-19T12:35:27;100151.62;;;11.48;51.91
60246;BME280;46107;53.356;-1.524;2023-04-19T12:37:58;100142.77;;;11.78;51.02
60246;BME280;46107;53.356;-1.524;2023-04-19T12:40:27;100157.53;;;10.56;54.44
60246;BME280;46107;53.356;-1.524;2023-04-19T12:42:55;100144.78;;;10.52;52.29
60246;BME280;46107;53.356;-1.524;2023-04-19T12:45:23;100140.74;;;11.96;50.50
60246;BME280;46107;53.356;-1.524;2023-04-19T12:47:51;100146.76;;;10.75;50.94
60246;BME280;46107;53.356;-1.524;2023-04-19T12:50:19;100152.05;;;9.72;52.17
60246;BME280;46107;53.356;-1.524;2023-04-19T12:52:47;100147.21;;;9.80;51.54
60246;BME280;46107;53.356;-1.524;2023-04-19T12:55:15;100144.48;;;9.72;51.53